sensor_id;sensor_type;location;lat;lon;timestamp;pressure;altitude;pressure_sealevel;temperature;humidity
63808;BME280;49961;43.970;22.868;2023-01-19T00:00:10;100120.38;;;9.64;100.00
63808;BME280;49961;43.970;22.868;2023-01-19T00:01:12;100115.09;;;9.70;100.00
63808;BME280;49961;43.970;22.868;2023-01-19T00:02:12;100122.97;;;9.71;100.00
63808;BME280;49961;43.970;22.868;2023-01-19T00:03:12;100118.53;;;9.74;100.00
63808;BME280;49961;43.970;22.868;2023-01-19T00:04:17;100053.53;;;9.25;100.00
63808;BME280;49961;43.970;22.868;2023-01-19T00:05:17;100006.72;;;9.05;100.00
63808;BME280;49961;43.970;22.868;2023-01-19T00:06:18;100124.84;;;9.74;100.00
63808;BME280;49961;43.970;22.868;2023-01-19T00:07:18;100114.22;;;9.73;100.00
63808;BME280;49961;43.970;22.868;2023-01-19T00:08:19;100013.25;;;9.11;100.00
63808;BME280;49961;43.970;22.868;2023-01-19T00:09:19;100124.75;;;9.90;100.00
63808;BME280;49961;43.970;22.868;2023-01-19T00:10:21;100116.47;;;9.90;100.00
63808;BME280;49961;43.970;22.868;2023-01-19T00:11:21;100111.16;;;9.83;100.00
63808;BME280;49961;43.970;22.868;2023-01-19T00:12:22;100118.34;;;9.81;100.00
63808;BME280;49961;43.970;22.868;2023-01-19T00:13:22;100094.63;;;9.67;100.00
63808;BME280;49961;43.970;22.868;2023-01-19T00:14:23;100102.91;;;9.67;100.00
63808;BME280;49961;43.970;22.868;2023-01-19T00:15:23;100128.97;;;9.82;100.00
63808;BME280;49961;43.970;22.868;2023-01-19T00:16:24;100126.88;;;9.86;100.00
63808;BME280;49961;43.970;22.868;2023-01-19T00:17:24;100120.44;;;9.89;100.00
63808;BME280;49961;43.970;22.868;2023-01-19T00:18:24;100115.81;;;9.86;100.00
63808;BME280;49961;43.970;22.868;2023-01-19T00:19:25;100115.91;;;9.83;100.00
63808;BME280;49961;43.970;22.868;2023-01-19T00:20:25;100117.75;;;9.73;100.00
63808;BME280;49961;43.970;22.868;2023-01-19T00:21:26;100114.56;;;9.75;100.00
63808;BME280;49961;43.970;22.868;2023-01-19T00:22:26;100118.44;;;9.77;100.00
63808;BME280;49961;43.970;22.868;2023-01-19T00:23:26;100104.47;;;9.68;100.00
63808;BME280;49961;43.970;22.868;2023-01-19T00:24:27;100118.13;;;9.75;100.00
63808;BME280;49961;43.970;22.868;2023-01-19T00:25:27;100119.78;;;9.73;100.00
63808;BME280;49961;43.970;22.868;2023-01-19T00:26:28;100130.94;;;9.82;100.00
63808;BME280;49961;43.970;22.868;2023-01-19T00:27:29;100131.63;;;9.86;100.00
63808;BME280;49961;43.970;22.868;2023-01-19T00:28:33;100123.75;;;9.84;100.00
63808;BME280;49961;43.970;22.868;2023-01-19T00:29:34;100120.97;;;9.72;100.00
63808;BME280;49961;43.970;22.868;2023-01-19T00:30:34;100125.63;;;9.75;100.00
63808;BME280;49961;43.970;22.868;2023-01-19T00:31:35;100131.84;;;9.79;100.00
63808;BME280;49961;43.970;22.868;2023-01-19T00:32:36;100144.78;;;9.82;100.00
63808;BME280;49961;43.970;22.868;2023-01-19T00:33:36;100146.78;;;9.81;100.00
63808;BME280;49961;43.970;22.868;2023-01-19T00:34:37;100137.22;;;9.70;100.00
63808;BME280;49961;43.970;22.868;2023-01-19T00:35:39;100158.88;;;9.87;100.00
63808;BME280;49961;43.970;22.868;2023-01-19T00:36:41;100086.91;;;9.46;100.00
63808;BME280;49961;43.970;22.868;2023-01-19T00:37:42;100148.47;;;9.91;100.00
63808;BME280;49961;43.970;22.868;2023-01-19T00:38:45;100141.72;;;9.92;100.00
63808;BME280;49961;43.970;22.868;2023-01-19T00:39:45;100138.53;;;9.94;100.00
63808;BME280;49961;43.970;22.868;2023-01-19T00:40:47;100145.25;;;9.93;100.00
63808;BME280;49961;43.970;22.868;2023-01-19T00:41:47;100123.09;;;9.80;100.00
63808;BME280;49961;43.970;22.868;2023-01-19T00:43:06;100157.91;;;9.94;100.00
63808;BME280;49961;43.970;22.868;2023-01-19T00:44:07;100048.25;;;9.30;100.00
63808;BME280;49961;43.970;22.868;2023-01-19T00:45:10;100165.31;;;9.97;100.00
63808;BME280;49961;43.970;22.868;2023-01-19T00:46:11;100158.91;;;10.00;100.00
63808;BME280;49961;43.970;22.868;2023-01-19T00:47:11;100151.81;;;9.99;100.00
63808;BME280;49961;43.970;22.868;2023-01-19T00:48:11;100149.91;;;9.96;100.00
63808;BME280;49961;43.970;22.868;2023-01-19T00:49:12;100154.66;;;9.95;100.00
63808;BME280;49961;43.970;22.868;2023-01-19T00:50:13;100146.47;;;9.92;100.00
63808;BME280;49961;43.970;22.868;2023-01-19T00:51:15;100159.63;;;9.88;100.00
63808;BME280;49961;43.970;22.868;2023-01-19T00:52:16;100101.06;;;9.48;100.00
63808;BME280;49961;43.970;22.868;2023-01-19T00:53:16;100163.63;;;9.87;100.00
63808;BME280;49961;43.970;22.868;2023-01-19T00:54:17;100153.66;;;9.89;100.00
63808;BME280;49961;43.970;22.868;2023-01-19T00:55:17;100074.59;;;9.35;100.00
63808;BME280;49961;43.970;22.868;2023-01-19T00:56:18;100160.28;;;9.79;100.00
63808;BME280;49961;43.970;22.868;2023-01-19T00:57:18;100151.97;;;9.79;100.00
63808;BME280;49961;43.970;22.868;2023-01-19T00:58:19;100139.03;;;9.76;100.00
63808;BME280;49961;43.970;22.868;2023-01-19T00:59:19;100138.03;;;9.70;100.00
63808;BME280;49961;43.970;22.868;2023-01-19T01:00:20;100140.97;;;9.63;100.00
63808;BME280;49961;43.970;22.868;2023-01-19T01:01:21;100136.06;;;9.55;100.00
63808;BME280;49961;43.970;22.868;2023-01-19T01:02:22;100169.84;;;9.62;100.00
63808;BME280;49961;43.970;22.868;2023-01-19T01:03:22;100179.69;;;9.63;100.00
63808;BME280;49961;43.970;22.868;2023-01-19T01:04:26;100161.81;;;9.68;100.00
63808;BME280;49961;43.970;22.868;2023-01-19T01:05:27;100158.94;;;9.71;100.00
63808;BME280;49961;43.970;22.868;2023-01-19T01:06:27;100149.25;;;9.63;100.00
63808;BME280;49961;43.970;22.868;2023-01-19T01:07:28;100166.22;;;9.65;100.00
63808;BME280;49961;43.970;22.868;2023-01-19T01:08:29;100157.66;;;9.60;100.00
63808;BME280;49961;43.970;22.868;2023-01-19T01:09:30;100164.00;;;9.60;100.00
63808;BME280;49961;43.970;22.868;2023-01-19T01:10:30;100171.94;;;9.58;100.00
63808;BME280;49961;43.970;22.868;2023-01-19T01:11:31;100179.78;;;9.60;100.00
63808;BME280;49961;43.970;22.868;2023-01-19T01:12:31;100168.41;;;9.58;100.00
63808;BME280;49961;43.970;22.868;2023-01-19T01:13:31;100168.47;;;9.54;100.00
63808;BME280;49961;43.970;22.868;2023-01-19T01:14:32;100151.81;;;9.58;100.00
63808;BME280;49961;43.970;22.868;2023-01-19T01:15:32;100153.16;;;9.66;100.00
63808;BME280;49961;43.970;22.868;2023-01-19T01:16:33;100145.16;;;9.55;100.00
63808;BME280;49961;43.970;22.868;2023-01-19T01:17:34;100162.50;;;9.56;100.00
63808;BME280;49961;43.970;22.868;2023-01-19T01:18:35;100141.88;;;9.44;100.00
63808;BME280;49961;43.970;22.868;2023-01-19T01:19:39;100118.88;;;9.19;100.00
63808;BME280;49961;43.970;22.868;2023-01-19T01:20:39;100161.50;;;9.50;100.00
63808;BME280;49961;43.970;22.868;2023-01-19T01:21:40;100160.97;;;9.55;100.00
63808;BME280;49961;43.970;22.868;2023-01-19T01:22:45;100095.38;;;9.11;100.00
63808;BME280;49961;43.970;22.868;2023-01-19T01:23:46;100168.31;;;9.61;100.00
63808;BME280;49961;43.970;22.868;2023-01-19T01:24:47;100169.16;;;9.58;100.00
63808;BME280;49961;43.970;22.868;2023-01-19T01:25:47;100152.47;;;9.62;100.00
63808;BME280;49961;43.970;22.868;2023-01-19T01:26:47;100144.94;;;9.62;100.00
63808;BME280;49961;43.970;22.868;2023-01-19T01:27:49;100059.13;;;9.09;100.00
63808;BME280;49961;43.970;22.868;2023-01-19T01:28:49;100149.38;;;9.60;100.00
63808;BME280;49961;43.970;22.868;2023-01-19T01:29:50;100135.88;;;9.62;100.00
63808;BME280;49961;43.970;22.868;2023-01-19T01:30:54;100146.41;;;9.67;100.00
63808;BME280;49961;43.970;22.868;2023-01-19T01:31:55;100100.16;;;9.39;100.00
63808;BME280;49961;43.970;22.868;2023-01-19T01:32:55;100117.34;;;9.46;100.00
63808;BME280;49961;43.970;22.868;2023-01-19T01:33:56;100144.75;;;9.69;100.00
63808;BME280;49961;43.970;22.868;2023-01-19T01:34:56;100139.22;;;9.69;100.00
63808;BME280;49961;43.970;22.868;2023-01-19T01:35:56;100147.63;;;9.66;100.00
63808;BME280;49961;43.970;22.868;2023-01-19T01:36:57;100116.59;;;9.58;100.00
63808;BME280;49961;43.970;22.868;2023-01-19T01:37:57;100119.03;;;9.56;100.00
63808;BME280;49961;43.970;22.868;2023-01-19T01:38:58;100139.84;;;9.61;100.00
63808;BME280;49961;43.970;22.868;2023-01-19T01:39:59;100132.50;;;9.54;100.00
63808;BME280;49961;43.970;22.868;2023-01-19T01:40:59;100041.09;;;9.04;100.00
63808;BME280;49961;43.970;22.868;2023-01-19T01:42:00;100126.00;;;9.61;100.00
63808;BME280;49961;43.970;22.868;2023-01-19T01:43:00;100127.34;;;9.56;100.00
63808;BME280;49961;43.970;22.868;2023-01-19T01:44:40;100134.16;;;9.52;100.00
63808;BME280;49961;43.970;22.868;2023-01-19T01:45:26;100134.16;;;9.52;100.00
63808;BME280;49961;43.970;22.868;2023-01-19T01:46:29;100135.75;;;9.53;100.00
63808;BME280;49961;43.970;22.868;2023-01-19T01:48:38;100130.97;;;9.53;100.00
63808;BME280;49961;43.970;22.868;2023-01-19T01:49:39;100135.16;;;9.45;100.00
63808;BME280;49961;43.970;22.868;2023-01-19T01:50:50;100130.06;;;9.44;100.00
63808;BME280;49961;43.970;22.868;2023-01-19T01:52:13;100068.97;;;9.10;100.00
63808;BME280;49961;43.970;22.868;2023-01-19T01:53:14;100143.00;;;9.47;100.00
63808;BME280;49961;43.970;22.868;2023-01-19T01:54:27;100131.84;;;9.50;100.00
63808;BME280;49961;43.970;22.868;2023-01-19T01:55:30;100073.72;;;9.09;100.00
63808;BME280;49961;43.970;22.868;2023-01-19T01:56:35;100137.03;;;9.48;100.00
63808;BME280;49961;43.970;22.868;2023-01-19T01:57:39;100136.59;;;9.50;100.00
63808;BME280;49961;43.970;22.868;2023-01-19T01:58:41;100132.28;;;9.49;100.00
63808;BME280;49961;43.970;22.868;2023-01-19T01:59:44;100121.50;;;9.38;100.00
63808;BME280;49961;43.970;22.868;2023-01-19T02:00:46;100124.38;;;9.35;100.00
63808;BME280;49961;43.970;22.868;2023-01-19T02:02:13;100120.47;;;9.32;100.00
63808;BME280;49961;43.970;22.868;2023-01-19T02:03:33;100129.56;;;9.33;100.00
63808;BME280;49961;43.970;22.868;2023-01-19T02:04:34;100131.97;;;9.31;100.00
63808;BME280;49961;43.970;22.868;2023-01-19T02:05:36;100129.41;;;9.24;100.00
63808;BME280;49961;43.970;22.868;2023-01-19T02:06:36;100126.63;;;9.24;100.00
63808;BME280;49961;43.970;22.868;2023-01-19T02:08:13;100123.63;;;9.18;100.00
63808;BME280;49961;43.970;22.868;2023-01-19T02:09:35;100122.75;;;9.21;100.00
63808;BME280;49961;43.970;22.868;2023-01-19T02:10:54;100125.34;;;9.12;100.00
63808;BME280;49961;43.970;22.868;2023-01-19T02:12:13;100121.03;;;9.11;100.00
63808;BME280;49961;43.970;22.868;2023-01-19T02:13:37;100125.44;;;9.09;100.00
63808;BME280;49961;43.970;22.868;2023-01-19T02:14:39;100121.84;;;8.96;100.00
63808;BME280;49961;43.970;22.868;2023-01-19T02:15:39;100128.41;;;9.02;100.00
63808;BME280;49961;43.970;22.868;2023-01-19T02:16:40;100136.25;;;9.03;100.00
63808;BME280;49961;43.970;22.868;2023-01-19T02:17:41;100036.06;;;8.39;100.00
63808;BME280;49961;43.970;22.868;2023-01-19T02:18:42;100134.00;;;8.98;100.00
63808;BME280;49961;43.970;22.868;2023-01-19T02:19:44;100129.16;;;9.02;100.00
63808;BME280;49961;43.970;22.868;2023-01-19T02:22:19;100114.22;;;9.00;100.00
63808;BME280;49961;43.970;22.868;2023-01-19T02:24:44;100110.88;;;8.92;100.00
63808;BME280;49961;43.970;22.868;2023-01-19T02:25:45;100080.41;;;8.64;100.00
63808;BME280;49961;43.970;22.868;2023-01-19T02:26:47;100069.97;;;8.55;100.00
63808;BME280;49961;43.970;22.868;2023-01-19T02:27:48;100111.75;;;8.89;100.00
63808;BME280;49961;43.970;22.868;2023-01-19T02:28:57;100094.06;;;8.87;100.00
63808;BME280;49961;43.970;22.868;2023-01-19T02:29:59;100110.09;;;8.92;100.00
63808;BME280;49961;43.970;22.868;2023-01-19T02:31:02;99972.28;;;8.01;100.00
63808;BME280;49961;43.970;22.868;2023-01-19T02:32:04;100065.47;;;8.61;100.00
63808;BME280;49961;43.970;22.868;2023-01-19T02:33:04;100101.81;;;8.92;100.00
63808;BME280;49961;43.970;22.868;2023-01-19T02:34:08;100108.56;;;8.91;100.00
63808;BME280;49961;43.970;22.868;2023-01-19T02:35:11;100026.91;;;8.42;100.00
63808;BME280;49961;43.970;22.868;2023-01-19T02:36:14;100045.81;;;8.43;100.00
63808;BME280;49961;43.970;22.868;2023-01-19T02:37:17;100104.69;;;8.88;100.00
63808;BME280;49961;43.970;22.868;2023-01-19T02:38:19;100095.94;;;8.90;100.00
63808;BME280;49961;43.970;22.868;2023-01-19T02:39:43;100103.88;;;8.88;100.00
63808;BME280;49961;43.970;22.868;2023-01-19T02:40:45;100114.50;;;8.89;100.00
63808;BME280;49961;43.970;22.868;2023-01-19T02:41:53;100098.69;;;8.90;100.00
63808;BME280;49961;43.970;22.868;2023-01-19T02:42:57;100103.97;;;8.84;100.00
63808;BME280;49961;43.970;22.868;2023-01-19T02:43:59;100077.13;;;8.69;100.00
63808;BME280;49961;43.970;22.868;2023-01-19T02:45:01;100048.22;;;8.57;100.00
63808;BME280;49961;43.970;22.868;2023-01-19T02:46:06;100085.06;;;8.83;100.00
63808;BME280;49961;43.970;22.868;2023-01-19T02:47:06;100098.63;;;8.77;100.00
63808;BME280;49961;43.970;22.868;2023-01-19T02:48:06;100090.78;;;8.76;100.00
63808;BME280;49961;43.970;22.868;2023-01-19T02:49:07;100102.44;;;8.83;100.00
63808;BME280;49961;43.970;22.868;2023-01-19T02:50:45;100095.00;;;8.80;100.00
63808;BME280;49961;43.970;22.868;2023-01-19T02:51:49;100096.63;;;8.78;100.00
63808;BME280;49961;43.970;22.868;2023-01-19T02:52:50;100097.84;;;8.77;100.00
63808;BME280;49961;43.970;22.868;2023-01-19T02:55:30;100078.44;;;8.64;100.00
63808;BME280;49961;43.970;22.868;2023-01-19T02:58:14;100083.53;;;8.66;100.00
63808;BME280;49961;43.970;22.868;2023-01-19T03:03:50;100107.41;;;8.56;100.00
63808;BME280;49961;43.970;22.868;2023-01-19T03:05:17;100110.78;;;8.48;100.00
63808;BME280;49961;43.970;22.868;2023-01-19T03:06:39;100112.16;;;8.40;100.00
63808;BME280;49961;43.970;22.868;2023-01-19T03:08:56;100119.75;;;8.36;100.00
63808;BME280;49961;43.970;22.868;2023-01-19T03:10:27;100124.47;;;8.35;100.00
63808;BME280;49961;43.970;22.868;2023-01-19T03:11:33;100114.13;;;8.23;100.00
63808;BME280;49961;43.970;22.868;2023-01-19T03:12:58;100077.81;;;7.70;100.00
63808;BME280;49961;43.970;22.868;2023-01-19T03:14:08;100111.19;;;7.95;100.00
63808;BME280;49961;43.970;22.868;2023-01-19T03:15:35;100127.03;;;7.91;100.00
63808;BME280;49961;43.970;22.868;2023-01-19T03:16:46;100119.66;;;7.84;100.00
63808;BME280;49961;43.970;22.868;2023-01-19T03:17:51;100107.66;;;7.75;100.00
63808;BME280;49961;43.970;22.868;2023-01-19T03:18:55;100083.53;;;7.59;100.00
63808;BME280;49961;43.970;22.868;2023-01-19T03:19:57;100124.34;;;7.87;100.00
63808;BME280;49961;43.970;22.868;2023-01-19T03:21:01;100081.22;;;7.58;100.00
63808;BME280;49961;43.970;22.868;2023-01-19T03:22:11;100131.56;;;7.81;100.00
63808;BME280;49961;43.970;22.868;2023-01-19T03:23:14;100109.28;;;7.53;100.00
63808;BME280;49961;43.970;22.868;2023-01-19T03:24:18;100043.34;;;7.23;100.00
63808;BME280;49961;43.970;22.868;2023-01-19T03:25:21;100087.16;;;7.56;100.00
63808;BME280;49961;43.970;22.868;2023-01-19T03:26:27;100133.88;;;7.83;100.00
63808;BME280;49961;43.970;22.868;2023-01-19T03:27:35;100132.53;;;7.91;100.00
63808;BME280;49961;43.970;22.868;2023-01-19T03:28:41;100127.44;;;7.89;100.00
63808;BME280;49961;43.970;22.868;2023-01-19T03:29:47;100109.00;;;7.86;100.00
63808;BME280;49961;43.970;22.868;2023-01-19T03:30:55;100113.22;;;7.91;100.00
63808;BME280;49961;43.970;22.868;2023-01-19T03:31:58;100118.31;;;7.92;100.00
63808;BME280;49961;43.970;22.868;2023-01-19T03:33:10;100115.56;;;7.92;100.00
63808;BME280;49961;43.970;22.868;2023-01-19T03:34:12;100067.22;;;7.68;100.00
63808;BME280;49961;43.970;22.868;2023-01-19T03:35:15;100098.22;;;7.92;100.00
63808;BME280;49961;43.970;22.868;2023-01-19T03:36:30;100084.38;;;7.76;100.00
63808;BME280;49961;43.970;22.868;2023-01-19T03:37:35;100112.19;;;7.85;100.00
63808;BME280;49961;43.970;22.868;2023-01-19T03:38:38;100110.88;;;7.89;100.00
63808;BME280;49961;43.970;22.868;2023-01-19T03:39:41;100106.41;;;7.95;100.00
63808;BME280;49961;43.970;22.868;2023-01-19T03:40:42;100114.97;;;8.01;100.00
63808;BME280;49961;43.970;22.868;2023-01-19T03:41:47;100117.41;;;7.99;100.00
63808;BME280;49961;43.970;22.868;2023-01-19T03:42:49;100048.34;;;7.47;100.00
63808;BME280;49961;43.970;22.868;2023-01-19T03:43:51;100113.22;;;7.91;100.00
63808;BME280;49961;43.970;22.868;2023-01-19T03:44:54;100106.41;;;7.95;100.00
63808;BME280;49961;43.970;22.868;2023-01-19T03:45:56;100014.34;;;7.34;100.00
63808;BME280;49961;43.970;22.868;2023-01-19T03:46:57;100100.91;;;7.95;100.00
63808;BME280;49961;43.970;22.868;2023-01-19T03:47:58;100099.97;;;8.02;100.00
63808;BME280;49961;43.970;22.868;2023-01-19T03:48:59;100067.13;;;7.72;100.00
63808;BME280;49961;43.970;22.868;2023-01-19T03:50:01;100102.41;;;8.00;100.00
63808;BME280;49961;43.970;22.868;2023-01-19T03:51:05;100104.72;;;8.01;100.00
63808;BME280;49961;43.970;22.868;2023-01-19T03:52:06;100100.34;;;8.04;100.00
63808;BME280;49961;43.970;22.868;2023-01-19T03:53:12;100099.22;;;8.01;100.00
63808;BME280;49961;43.970;22.868;2023-01-19T03:54:13;100070.88;;;7.81;100.00
63808;BME280;49961;43.970;22.868;2023-01-19T03:55:13;100101.03;;;8.08;100.00
63808;BME280;49961;43.970;22.868;2023-01-19T03:56:19;100114.91;;;8.04;100.00
63808;BME280;49961;43.970;22.868;2023-01-19T03:57:20;100108.63;;;8.04;100.00
63808;BME280;49961;43.970;22.868;2023-01-19T03:58:21;100108.97;;;8.06;100.00
63808;BME280;49961;43.970;22.868;2023-01-19T03:59:21;100103.03;;;8.07;100.00
63808;BME280;49961;43.970;22.868;2023-01-19T04:00:22;100096.28;;;8.08;100.00
63808;BME280;49961;43.970;22.868;2023-01-19T04:01:24;100108.88;;;8.09;100.00
63808;BME280;49961;43.970;22.868;2023-01-19T04:02:24;100104.56;;;8.08;100.00
63808;BME280;49961;43.970;22.868;2023-01-19T04:03:25;100106.19;;;8.06;100.00
63808;BME280;49961;43.970;22.868;2023-01-19T04:04:25;100109.28;;;8.08;100.00
63808;BME280;49961;43.970;22.868;2023-01-19T04:05:25;100100.19;;;8.11;100.00
63808;BME280;49961;43.970;22.868;2023-01-19T04:06:26;100029.00;;;7.67;100.00
63808;BME280;49961;43.970;22.868;2023-01-19T04:07:27;100099.75;;;8.12;100.00
63808;BME280;49961;43.970;22.868;2023-01-19T04:08:27;100108.88;;;8.09;100.00
63808;BME280;49961;43.970;22.868;2023-01-19T04:09:28;100100.84;;;7.99;100.00
63808;BME280;49961;43.970;22.868;2023-01-19T04:10:28;100097.63;;;8.00;100.00
63808;BME280;49961;43.970;22.868;2023-01-19T04:11:29;100107.38;;;7.89;100.00
63808;BME280;49961;43.970;22.868;2023-01-19T04:12:29;100077.19;;;7.62;100.00
63808;BME280;49961;43.970;22.868;2023-01-19T04:13:30;100112.94;;;7.85;100.00
63808;BME280;49961;43.970;22.868;2023-01-19T04:14:30;100107.41;;;7.85;100.00
63808;BME280;49961;43.970;22.868;2023-01-19T04:15:31;100102.69;;;7.86;100.00
63808;BME280;49961;43.970;22.868;2023-01-19T04:16:31;100031.16;;;7.40;100.00
63808;BME280;49961;43.970;22.868;2023-01-19T04:17:32;100095.66;;;7.65;100.00
63808;BME280;49961;43.970;22.868;2023-01-19T04:18:33;100097.63;;;7.65;100.00
63808;BME280;49961;43.970;22.868;2023-01-19T04:19:33;100121.38;;;7.78;100.00
63808;BME280;49961;43.970;22.868;2023-01-19T04:20:34;100072.09;;;7.61;100.00
63808;BME280;49961;43.970;22.868;2023-01-19T04:21:34;100103.19;;;7.81;100.00
63808;BME280;49961;43.970;22.868;2023-01-19T04:22:36;100108.41;;;7.75;100.00
63808;BME280;49961;43.970;22.868;2023-01-19T04:23:38;100119.81;;;7.77;100.00
63808;BME280;49961;43.970;22.868;2023-01-19T04:24:38;100119.41;;;7.79;100.00
63808;BME280;49961;43.970;22.868;2023-01-19T04:25:39;100124.47;;;7.80;100.00
63808;BME280;49961;43.970;22.868;2023-01-19T04:26:39;100118.53;;;7.82;100.00
63808;BME280;49961;43.970;22.868;2023-01-19T04:27:40;100114.66;;;7.79;100.00
63808;BME280;49961;43.970;22.868;2023-01-19T04:28:40;100053.66;;;7.38;100.00
63808;BME280;49961;43.970;22.868;2023-01-19T04:29:42;100114.78;;;7.72;100.00
63808;BME280;49961;43.970;22.868;2023-01-19T04:30:42;100098.75;;;7.67;100.00
63808;BME280;49961;43.970;22.868;2023-01-19T04:31:42;100106.75;;;7.81;100.00
63808;BME280;49961;43.970;22.868;2023-01-19T04:32:43;100114.56;;;7.83;100.00
63808;BME280;49961;43.970;22.868;2023-01-19T04:33:43;100050.03;;;7.41;100.00
63808;BME280;49961;43.970;22.868;2023-01-19T04:34:44;100115.78;;;7.82;100.00
63808;BME280;49961;43.970;22.868;2023-01-19T04:35:45;100128.44;;;7.79;100.00
63808;BME280;49961;43.970;22.868;2023-01-19T04:36:46;100134.66;;;7.83;100.00
63808;BME280;49961;43.970;22.868;2023-01-19T04:37:50;100127.94;;;7.84;100.00
63808;BME280;49961;43.970;22.868;2023-01-19T04:38:50;100120.09;;;7.83;100.00
63808;BME280;49961;43.970;22.868;2023-01-19T04:39:51;100119.81;;;7.77;100.00
63808;BME280;49961;43.970;22.868;2023-01-19T04:40:52;100117.19;;;7.70;100.00
63808;BME280;49961;43.970;22.868;2023-01-19T04:41:53;100117.19;;;7.70;100.00
63808;BME280;49961;43.970;22.868;2023-01-19T04:42:55;100118.13;;;7.64;100.00
63808;BME280;49961;43.970;22.868;2023-01-19T04:43:55;100114.16;;;7.65;100.00
63808;BME280;49961;43.970;22.868;2023-01-19T04:44:56;100110.56;;;7.68;100.00
63808;BME280;49961;43.970;22.868;2023-01-19T04:45:56;100014.09;;;7.09;100.00
63808;BME280;49961;43.970;22.868;2023-01-19T04:46:56;100111.66;;;7.70;100.00
63808;BME280;49961;43.970;22.868;2023-01-19T04:47:57;100105.41;;;7.70;100.00
63808;BME280;49961;43.970;22.868;2023-01-19T04:48:57;99991.19;;;6.93;100.00
63808;BME280;49961;43.970;22.868;2023-01-19T04:49:58;100106.44;;;7.76;100.00
63808;BME280;49961;43.970;22.868;2023-01-19T04:50:58;100109.53;;;7.78;100.00
63808;BME280;49961;43.970;22.868;2023-01-19T04:51:59;100079.16;;;7.62;100.00
63808;BME280;49961;43.970;22.868;2023-01-19T04:53:00;100093.09;;;7.55;100.00
63808;BME280;49961;43.970;22.868;2023-01-19T04:54:02;100071.34;;;7.60;100.00
63808;BME280;49961;43.970;22.868;2023-01-19T04:55:04;100081.72;;;7.53;100.00
63808;BME280;49961;43.970;22.868;2023-01-19T04:56:05;99918.47;;;6.48;100.00
63808;BME280;49961;43.970;22.868;2023-01-19T04:57:05;100099.53;;;7.68;100.00
63808;BME280;49961;43.970;22.868;2023-01-19T04:58:06;100101.78;;;7.73;100.00
63808;BME280;49961;43.970;22.868;2023-01-19T04:59:07;100109.69;;;7.71;100.00
63808;BME280;49961;43.970;22.868;2023-01-19T05:00:08;100109.69;;;7.71;100.00
63808;BME280;49961;43.970;22.868;2023-01-19T05:01:09;100097.47;;;7.72;100.00
63808;BME280;49961;43.970;22.868;2023-01-19T05:02:09;100107.66;;;7.75;100.00
63808;BME280;49961;43.970;22.868;2023-01-19T05:03:10;100091.44;;;7.77;100.00
63808;BME280;49961;43.970;22.868;2023-01-19T05:04:11;100095.00;;;7.77;100.00
63808;BME280;49961;43.970;22.868;2023-01-19T05:05:11;100117.78;;;7.81;100.00
63808;BME280;49961;43.970;22.868;2023-01-19T05:06:12;100100.94;;;7.76;100.00
63808;BME280;49961;43.970;22.868;2023-01-19T05:07:12;100102.78;;;7.82;100.00
63808;BME280;49961;43.970;22.868;2023-01-19T05:08:13;100098.81;;;7.83;100.00
63808;BME280;49961;43.970;22.868;2023-01-19T05:09:13;100086.63;;;7.81;100.00
63808;BME280;49961;43.970;22.868;2023-01-19T05:10:14;100090.69;;;7.76;100.00
63808;BME280;49961;43.970;22.868;2023-01-19T05:11:15;100102.78;;;7.82;100.00
63808;BME280;49961;43.970;22.868;2023-01-19T05:12:15;100103.53;;;7.83;100.00
63808;BME280;49961;43.970;22.868;2023-01-19T05:13:16;100112.59;;;7.83;100.00
63808;BME280;49961;43.970;22.868;2023-01-19T05:14:17;99995.84;;;7.15;100.00
63808;BME280;49961;43.970;22.868;2023-01-19T05:15:18;100113.66;;;7.89;100.00
63808;BME280;49961;43.970;22.868;2023-01-19T05:16:18;100132.13;;;7.92;100.00
63808;BME280;49961;43.970;22.868;2023-01-19T05:17:18;100016.53;;;7.23;100.00
63808;BME280;49961;43.970;22.868;2023-01-19T05:18:19;100119.88;;;7.93;100.00
63808;BME280;49961;43.970;22.868;2023-01-19T05:19:20;100114.00;;;7.91;100.00
63808;BME280;49961;43.970;22.868;2023-01-19T05:20:20;100109.41;;;7.85;100.00
63808;BME280;49961;43.970;22.868;2023-01-19T05:21:21;100112.25;;;7.81;100.00
63808;BME280;49961;43.970;22.868;2023-01-19T05:22:21;100118.09;;;7.83;100.00
63808;BME280;49961;43.970;22.868;2023-01-19T05:23:21;100116.91;;;7.84;100.00
63808;BME280;49961;43.970;22.868;2023-01-19T05:24:22;100115.34;;;7.83;100.00
63808;BME280;49961;43.970;22.868;2023-01-19T05:25:22;100107.03;;;7.67;100.00
63808;BME280;49961;43.970;22.868;2023-01-19T05:26:23;100115.28;;;7.67;100.00
63808;BME280;49961;43.970;22.868;2023-01-19T05:27:23;100093.38;;;7.60;100.00
63808;BME280;49961;43.970;22.868;2023-01-19T05:28:24;100118.75;;;7.71;100.00
63808;BME280;49961;43.970;22.868;2023-01-19T05:29:24;100118.41;;;7.69;100.00
63808;BME280;49961;43.970;22.868;2023-01-19T05:30:24;100136.00;;;7.75;100.00
63808;BME280;49961;43.970;22.868;2023-01-19T05:31:25;100143.50;;;7.75;100.00
63808;BME280;49961;43.970;22.868;2023-01-19T05:32:25;100132.91;;;7.73;100.00
63808;BME280;49961;43.970;22.868;2023-01-19T05:33:26;100124.34;;;7.68;100.00
63808;BME280;49961;43.970;22.868;2023-01-19T05:34:26;100128.03;;;7.61;100.00
63808;BME280;49961;43.970;22.868;2023-01-19T05:35:27;100139.47;;;7.60;100.00
63808;BME280;49961;43.970;22.868;2023-01-19T05:36:27;100142.16;;;7.63;100.00
63808;BME280;49961;43.970;22.868;2023-01-19T05:37:28;100135.09;;;7.62;100.00